Time;durP1;ratioP1;P1;durP2;ratioP2;P2;SDS_P1;SDS_P2;PMS_P1;PMS_P2;Temp;Humidity;BMP_temperature;BMP_pressure;BME280_temperature;BME280_humidity;BME280_pressure;Samples;Min_cycle;Max_cycle;Signal;HPM_P1;HPM_P2
2023/02/06 00:01:46;;;;;;;20.42;8.77;;;;;;;;;;4750541;30;20032;-66
2023/02/06 00:04:12;;;;;;;18.50;6.88;;;;;;;;;;4750335;30;20056;-76
2023/02/06 00:06:38;;;;;;;17.02;7.53;;;;;;;;;;4750453;30;20085;-76
2023/02/06 05:06:21;;;;;;;21.08;8.57;;;;;;;;;;4383256;24;20050;-80
2023/02/06 05:08:47;;;;;;;23.65;9.93;;;;;;;;;;4856422;29;20037;-64
2023/02/06 05:11:13;;;;;;;20.60;10.38;;;;;;;;;;4844628;29;20045;-67
2023/02/06 05:13:41;;;;;;;22.70;10.93;;;;;;;;;;4861429;29;20105;-84
2023/02/06 05:16:08;;;;;;;22.73;9.90;;;;;;;;;;4844580;29;20053;-66
2023/02/06 05:18:34;;;;;;;19.60;8.40;;;;;;;;;;4844716;29;20490;-75
2023/02/06 05:21:00;;;;;;;22.77;10.55;;;;;;;;;;4861229;29;20033;-66
2023/02/06 05:23:27;;;;;;;22.80;10.82;;;;;;;;;;4860989;29;20049;-65
2023/02/06 05:25:53;;;;;;;22.77;10.23;;;;;;;;;;4861374;29;20112;-66
2023/02/06 05:28:19;;;;;;;17.98;9.05;;;;;;;;;;4861227;29;20029;-67
2023/02/06 05:30:45;;;;;;;24.77;11.52;;;;;;;;;;4861053;29;20038;-79
2023/02/06 05:33:11;;;;;;;22.33;10.18;;;;;;;;;;4860787;29;20026;-67
2023/02/06 05:35:38;;;;;;;26.27;11.23;;;;;;;;;;4860524;29;20060;-69
2023/02/06 05:38:04;;;;;;;24.98;12.45;;;;;;;;;;4860755;29;20186;-67
2023/02/06 05:40:30;;;;;;;23.13;11.02;;;;;;;;;;4861066;29;20037;-67
2023/02/06 05:42:58;;;;;;;22.90;10.57;;;;;;;;;;4860610;29;20375;-67
2023/02/06 05:45:24;;;;;;;27.48;12.15;;;;;;;;;;4860684;29;20041;-67
2023/02/06 05:47:52;;;;;;;29.27;13.10;;;;;;;;;;4860603;29;20030;-79
2023/02/06 05:50:18;;;;;;;23.05;9.90;;;;;;;;;;4860894;29;20037;-74
2023/02/06 05:52:44;;;;;;;20.00;7.82;;;;;;;;;;4860513;29;20045;-80
2023/02/06 05:55:11;;;;;;;20.73;9.88;;;;;;;;;;4860503;29;20036;-67
2023/02/06 05:57:37;;;;;;;30.45;12.15;;;;;;;;;;4860306;29;20120;-66
2023/02/06 06:00:04;;;;;;;36.78;15.65;;;;;;;;;;4844311;29;20141;-67
2023/02/06 06:02:30;;;;;;;24.23;11.10;;;;;;;;;;4841398;29;20034;-68
2023/02/06 06:04:56;;;;;;;25.67;11.25;;;;;;;;;;4840553;29;20045;-71
2023/02/06 06:07:22;;;;;;;20.48;9.45;;;;;;;;;;4838138;29;20058;-67
2023/02/06 06:09:48;;;;;;;25.40;10.48;;;;;;;;;;4840838;29;20449;-73
2023/02/06 06:12:14;;;;;;;24.00;11.48;;;;;;;;;;4841002;29;20026;-67
2023/02/06 06:14:40;;;;;;;25.67;11.90;;;;;;;;;;4839669;29;20026;-73
2023/02/06 06:17:06;;;;;;;37.65;16.50;;;;;;;;;;4841613;29;20030;-74
2023/02/06 06:19:32;;;;;;;24.40;11.23;;;;;;;;;;4841750;29;20034;-66
2023/02/06 06:21:58;;;;;;;29.45;14.25;;;;;;;;;;4841701;29;20531;-67
2023/02/06 06:24:25;;;;;;;26.10;11.95;;;;;;;;;;4840034;29;20050;-68
2023/02/06 06:26:51;;;;;;;22.85;10.90;;;;;;;;;;4840429;29;20033;-81
2023/02/06 06:29:17;;;;;;;24.77;11.43;;;;;;;;;;4840037;29;20083;-72
2023/02/06 06:31:43;;;;;;;29.42;13.52;;;;;;;;;;4840330;29;20030;-67
2023/02/06 06:34:09;;;;;;;27.50;12.45;;;;;;;;;;4840083;29;20030;-73
2023/02/06 06:36:35;;;;;;;23.45;10.00;;;;;;;;;;4841001;29;20381;-65
2023/02/06 06:39:01;;;;;;;22.10;11.25;;;;;;;;;;4840104;29;20038;-70
2023/02/06 06:41:27;;;;;;;30.23;14.32;;;;;;;;;;4840326;29;20026;-66
2023/02/06 06:43:57;;;;;;;26.45;13.13;;;;;;;;;;4841078;29;20547;-65
2023/02/06 06:46:23;;;;;;;30.63;13.43;;;;;;;;;;4841250;29;20113;-71
2023/02/06 06:48:49;;;;;;;27.45;10.63;;;;;;;;;;4823074;29;20049;-66
2023/02/06 06:51:15;;;;;;;27.75;12.40;;;;;;;;;;4839596;29;20109;-70
2023/02/06 06:53:41;;;;;;;25.75;11.40;;;;;;;;;;4839684;29;20105;-66
2023/02/06 06:56:08;;;;;;;73.10;23.02;;;;;;;;;;4840063;29;20432;-72
2023/02/06 06:58:34;;;;;;;108.68;33.35;;;;;;;;;;4839625;29;20030;-66
2023/02/06 07:01:00;;;;;;;67.25;22.88;;;;;;;;;;4840802;29;20490;-70
2023/02/06 07:03:26;;;;;;;23.17;8.20;;;;;;;;;;4840638;29;20433;-66
2023/02/06 07:05:52;;;;;;;21.05;9.20;;;;;;;;;;4840239;29;20100;-70
2023/02/06 07:08:18;;;;;;;26.98;11.75;;;;;;;;;;4840562;29;20479;-66
2023/02/06 07:10:44;;;;;;;28.15;11.43;;;;;;;;;;4840582;29;20034;-66
2023/02/06 07:13:11;;;;;;;27.00;12.95;;;;;;;;;;4840666;29;20076;-64
2023/02/06 07:15:37;;;;;;;19.85;9.68;;;;;;;;;;4840529;29;20030;-64
2023/02/06 07:18:03;;;;;;;24.95;10.88;;;;;;;;;;4843879;29;20382;-65
2023/02/06 07:20:29;;;;;;;27.25;11.18;;;;;;;;;;4840222;29;20026;-65
2023/02/06 07:22:55;;;;;;;25.27;12.05;;;;;;;;;;4824269;29;20042;-72
2023/02/06 07:25:21;;;;;;;29.52;14.00;;;;;;;;;;4844557;29;20034;-69
2023/02/06 07:27:47;;;;;;;23.17;8.77;;;;;;;;;;4851694;29;20026;-70
2023/02/06 07:30:13;;;;;;;26.90;14.07;;;;;;;;;;4839898;29;20122;-66
2023/02/06 07:32:39;;;;;;;29.55;13.52;;;;;;;;;;4840709;29;20030;-70
2023/02/06 07:35:06;;;;;;;25.45;11.10;;;;;;;;;;4839376;29;20030;-67
2023/02/06 07:37:32;;;;;;;25.55;10.77;;;;;;;;;;4839013;29;20518;-66
2023/02/06 07:39:58;;;;;;;26.63;12.63;;;;;;;;;;4839039;29;20026;-66
2023/02/06 07:42:24;;;;;;;24.33;11.80;;;;;;;;;;4840035;29;20109;-72
2023/02/06 07:44:50;;;;;;;24.92;11.88;;;;;;;;;;4840128;29;20042;-66
2023/02/06 07:47:16;;;;;;;29.33;11.98;;;;;;;;;;4840439;29;20479;-68
2023/02/06 07:49:42;;;;;;;46.90;18.27;;;;;;;;;;4840449;29;20041;-67
2023/02/06 07:52:08;;;;;;;39.10;16.40;;;;;;;;;;4840206;29;20030;-75
2023/02/06 07:54:34;;;;;;;32.13;14.55;;;;;;;;;;4840131;29;20390;-67
2023/02/06 07:57:00;;;;;;;24.75;11.77;;;;;;;;;;4840150;29;20063;-67
2023/02/06 07:59:27;;;;;;;26.00;12.38;;;;;;;;;;4823875;29;20090;-75
2023/02/06 08:01:53;;;;;;;31.45;13.35;;;;;;;;;;4840410;29;20030;-67
2023/02/06 08:04:19;;;;;;;28.83;12.93;;;;;;;;;;4840205;29;20129;-67
2023/02/06 08:06:45;;;;;;;27.98;14.10;;;;;;;;;;4838970;29;20080;-75
2023/02/06 08:09:12;;;;;;;26.60;14.20;;;;;;;;;;4840212;29;20029;-68
2023/02/06 08:11:38;;;;;;;27.27;11.18;;;;;;;;;;4838971;29;20513;-71
2023/02/06 08:14:04;;;;;;;24.13;11.77;;;;;;;;;;4838901;29;20040;-69
2023/02/06 08:16:31;;;;;;;22.30;10.25;;;;;;;;;;4839191;29;20034;-68
2023/02/06 08:18:57;;;;;;;23.48;11.73;;;;;;;;;;4840167;29;20545;-66
2023/02/06 08:21:24;;;;;;;25.35;12.18;;;;;;;;;;4838523;29;20036;-68
2023/02/06 08:23:53;;;;;;;23.55;11.13;;;;;;;;;;4839299;29;20102;-65
2023/02/06 08:26:20;;;;;;;23.95;10.65;;;;;;;;;;4823145;29;20076;-71
2023/02/06 08:28:47;;;;;;;23.73;10.88;;;;;;;;;;4839867;29;20078;-66
2023/02/06 08:31:16;;;;;;;16.90;7.57;;;;;;;;;;4839989;29;20117;-68
2023/02/06 08:33:43;;;;;;;21.98;8.10;;;;;;;;;;4840100;29;20098;-68
2023/02/06 08:36:09;;;;;;;17.10;8.45;;;;;;;;;;4839529;29;20510;-67
2023/02/06 08:38:35;;;;;;;22.10;10.95;;;;;;;;;;4842999;29;20504;-68
2023/02/06 08:41:02;;;;;;;26.23;12.48;;;;;;;;;;4842885;29;20034;-70
2023/02/06 08:43:28;;;;;;;22.58;10.98;;;;;;;;;;4843039;29;20486;-67
2023/02/06 08:45:56;;;;;;;26.52;11.93;;;;;;;;;;4842113;29;20558;-68
2023/02/06 08:48:22;;;;;;;29.35;12.07;;;;;;;;;;4841953;29;20124;-69
2023/02/06 08:50:48;;;;;;;27.08;12.38;;;;;;;;;;4842243;29;20030;-68
2023/02/06 08:53:14;;;;;;;33.83;13.93;;;;;;;;;;4841986;29;20053;-67
2023/02/06 08:55:40;;;;;;;28.35;12.05;;;;;;;;;;4841593;29;20475;-73
2023/02/06 08:58:06;;;;;;;26.95;12.30;;;;;;;;;;4841427;29;20041;-74
2023/02/06 09:00:32;;;;;;;50.05;19.50;;;;;;;;;;4841706;29;20471;-70
2023/02/06 09:02:58;;;;;;;29.83;14.68;;;;;;;;;;4841881;29;20108;-67
2023/02/06 09:05:24;;;;;;;38.75;16.98;;;;;;;;;;4841845;29;20114;-67
2023/02/06 09:07:50;;;;;;;29.33;13.23;;;;;;;;;;4840888;29;20046;-67
2023/02/06 09:10:16;;;;;;;39.53;17.95;;;;;;;;;;4841441;29;20114;-67
2023/02/06 09:12:42;;;;;;;23.58;11.43;;;;;;;;;;4842170;29;20018;-66
2023/02/06 09:15:09;;;;;;;26.90;12.90;;;;;;;;;;4841909;29;20022;-67
2023/02/06 09:17:35;;;;;;;31.50;13.30;;;;;;;;;;4841652;29;20154;-67
2023/02/06 09:20:01;;;;;;;27.83;14.60;;;;;;;;;;4841622;29;20034;-65
2023/02/06 09:22:29;;;;;;;52.95;19.48;;;;;;;;;;4841271;29;20022;-65
2023/02/06 09:24:55;;;;;;;33.60;15.98;;;;;;;;;;4841158;29;20496;-65
2023/02/06 09:27:21;;;;;;;30.02;12.73;;;;;;;;;;4841428;29;20035;-72
2023/02/06 09:29:47;;;;;;;23.88;11.02;;;;;;;;;;4841083;29;20406;-66
2023/02/06 09:32:13;;;;;;;29.38;12.82;;;;;;;;;;4840073;29;20387;-65
2023/02/06 09:34:39;;;;;;;23.45;11.43;;;;;;;;;;4840560;29;20475;-70
2023/02/06 09:37:06;;;;;;;25.35;11.95;;;;;;;;;;4824995;29;20380;-64
2023/02/06 09:39:32;;;;;;;22.98;11.18;;;;;;;;;;4840546;29;20030;-65
2023/02/06 09:42:04;;;;;;;28.35;11.63;;;;;;;;;;4841184;29;20054;-68
2023/02/06 09:44:30;;;;;;;;;;;;;;;;;;4839543;29;20034;-65
2023/02/06 09:47:25;;;;;;;21.75;9.73;;;;;;;;;;4840927;29;19977;-66
2023/02/06 09:50:01;;;;;;;21.52;9.43;;;;;;;;;;4784143;30;20051;-66
2023/02/06 09:52:32;;;;;;;18.75;10.15;;;;;;;;;;4781755;30;20505;-66
2023/02/06 09:55:16;;;;;;;21.70;9.98;;;;;;;;;;4783802;30;20132;-68
2023/02/06 09:57:45;;;;;;;19.10;9.75;;;;;;;;;;4783926;30;20032;-67
2023/02/06 10:00:17;;;;;;;22.88;11.48;;;;;;;;;;4783949;30;20123;-68
2023/02/06 10:02:52;;;;;;;22.45;10.38;;;;;;;;;;4781973;30;20114;-66
2023/02/06 10:05:25;;;;;;;20.77;10.15;;;;;;;;;;4784111;30;20126;-66
2023/02/06 10:07:51;;;;;;;18.80;10.32;;;;;;;;;;4783472;30;20521;-66
2023/02/06 10:10:27;;;;;;;17.02;8.70;;;;;;;;;;4784736;30;20044;-65
2023/02/06 10:13:13;;;;;;;18.63;9.27;;;;;;;;;;4782107;29;20112;-64
2023/02/06 10:15:44;;;;;;;18.52;9.20;;;;;;;;;;4784167;30;20122;-66
2023/02/06 10:18:28;;;;;;;19.42;10.88;;;;;;;;;;4781084;30;20031;-64
2023/02/06 10:20:57;;;;;;;21.60;10.40;;;;;;;;;;4783912;30;20051;-67
2023/02/06 10:23:39;;;;;;;22.63;11.32;;;;;;;;;;4783371;30;20504;-67
2023/02/06 10:26:15;;;;;;;16.83;8.98;;;;;;;;;;4797508;29;20092;-73
2023/02/06 10:28:43;;;;;;;22.10;11.23;;;;;;;;;;4822231;29;20175;-68
2023/02/06 10:31:09;;;;;;;24.40;11.32;;;;;;;;;;4823021;29;20083;-65
2023/02/06 10:33:48;;;;;;;25.08;11.05;;;;;;;;;;4822198;29;20031;-68
2023/02/06 10:36:26;;;;;;;22.45;11.55;;;;;;;;;;4819571;29;20042;-69
2023/02/06 10:39:07;;;;;;;24.25;11.88;;;;;;;;;;4822434;29;20039;-71
2023/02/06 10:41:47;;;;;;;18.08;8.57;;;;;;;;;;4822757;29;20038;-69
2023/02/06 10:44:13;;;;;;;23.83;11.80;;;;;;;;;;4821888;29;20061;-68
2023/02/06 10:46:49;;;;;;;23.80;11.60;;;;;;;;;;4822196;29;20491;-68
2023/02/06 10:49:33;;;;;;;37.45;17.42;;;;;;;;;;4822312;29;20038;-67
2023/02/06 10:52:01;;;;;;;33.65;16.30;;;;;;;;;;4821927;29;20038;-67
2023/02/06 10:54:31;;;;;;;25.10;11.82;;;;;;;;;;4831142;29;20486;-68
2023/02/06 10:56:57;;;;;;;20.15;10.63;;;;;;;;;;4839718;29;20040;-67
2023/02/06 10:59:23;;;;;;;17.67;9.70;;;;;;;;;;4840527;29;20506;-68
2023/02/06 11:01:52;;;;;;;18.15;9.57;;;;;;;;;;4831788;29;20049;-73
2023/02/06 11:04:24;;;;;;;22.52;10.75;;;;;;;;;;4821634;29;20068;-67
2023/02/06 11:06:50;;;;;;;;;;;;;;;;;;4829974;29;20495;-66
2023/02/06 11:09:16;;;;;;;16.48;8.95;;;;;;;;;;4840303;29;19920;-66
2023/02/06 11:11:46;;;;;;;19.08;8.52;;;;;;;;;;4823251;29;20074;-66
2023/02/06 11:14:17;;;;;;;18.77;9.02;;;;;;;;;;4838486;29;20117;-67
2023/02/06 11:16:43;;;;;;;15.95;8.95;;;;;;;;;;4840573;29;20033;-69
2023/02/06 11:19:23;;;;;;;14.10;8.05;;;;;;;;;;4840448;29;20030;-67
2023/02/06 11:21:49;;;;;;;16.73;8.38;;;;;;;;;;4840643;29;20033;-66
2023/02/06 11:24:16;;;;;;;19.10;10.00;;;;;;;;;;4840034;29;20030;-66
2023/02/06 11:26:45;;;;;;;17.02;9.50;;;;;;;;;;4840213;29;20045;-66
2023/02/06 11:29:25;;;;;;;18.38;8.73;;;;;;;;;;4840428;29;20041;-66
2023/02/06 11:31:55;;;;;;;25.00;13.50;;;;;;;;;;4824158;29;20033;-66
2023/02/06 11:34:26;;;;;;;16.48;8.32;;;;;;;;;;4840097;29;20030;-67
2023/02/06 11:36:54;;;;;;;17.10;9.27;;;;;;;;;;4838938;29;20045;-66
2023/02/06 11:39:23;;;;;;;20.17;9.73;;;;;;;;;;4839071;29;20472;-66
2023/02/06 11:41:56;;;;;;;18.20;9.07;;;;;;;;;;4822397;29;20402;-67
2023/02/06 11:44:24;;;;;;;22.30;10.07;;;;;;;;;;4838843;29;20127;-66
2023/02/06 11:46:50;;;;;;;19.45;9.55;;;;;;;;;;4838790;29;20439;-66
2023/02/06 11:49:18;;;;;;;20.10;9.30;;;;;;;;;;4839209;29;20030;-66
2023/02/06 11:51:47;;;;;;;19.05;9.55;;;;;;;;;;4838924;29;20037;-66
2023/02/06 11:54:20;;;;;;;19.67;10.10;;;;;;;;;;4840087;29;20040;-68
2023/02/06 11:57:06;;;;;;;18.17;9.00;;;;;;;;;;4840127;29;20029;-67
2023/02/06 11:59:33;;;;;;;17.33;9.38;;;;;;;;;;4839628;29;20380;-68
2023/02/06 12:02:04;;;;;;;16.17;9.30;;;;;;;;;;4840052;29;20432;-66
2023/02/06 12:04:38;;;;;;;16.42;8.07;;;;;;;;;;4840056;29;20152;-65
2023/02/06 12:07:05;;;;;;;21.55;10.10;;;;;;;;;;4839403;29;20054;-65
2023/02/06 12:09:31;;;;;;;19.05;8.93;;;;;;;;;;4840191;29;20050;-68
2023/02/06 12:11:57;;;;;;;16.52;9.52;;;;;;;;;;4840886;29;20085;-67
2023/02/06 12:14:29;;;;;;;17.55;8.90;;;;;;;;;;4843763;29;20483;-67
2023/02/06 12:16:56;;;;;;;17.67;9.13;;;;;;;;;;4843761;29;20028;-69
2023/02/06 12:19:30;;;;;;;16.50;9.20;;;;;;;;;;4826752;29;20153;-69
2023/02/06 12:22:02;;;;;;;20.88;10.05;;;;;;;;;;4843393;29;20030;-68
2023/02/06 12:24:33;;;;;;;35.65;15.13;;;;;;;;;;4843379;29;20056;-67
2023/02/06 12:27:01;;;;;;;14.85;6.82;;;;;;;;;;4843353;29;20022;-67
2023/02/06 12:29:30;;;;;;;17.05;6.93;;;;;;;;;;4843230;29;20041;-70
2023/02/06 12:32:08;;;;;;;17.63;9.60;;;;;;;;;;4843453;29;20106;-68
2023/02/06 12:34:52;;;;;;;37.60;19.20;;;;;;;;;;4843603;29;20030;-67
2023/02/06 12:37:36;;;;;;;18.58;9.68;;;;;;;;;;4843179;29;20087;-67
2023/02/06 12:40:03;;;;;;;22.00;10.75;;;;;;;;;;4843164;29;20034;-68
2023/02/06 12:42:35;;;;;;;18.20;8.73;;;;;;;;;;4843374;29;20033;-68
2023/02/06 12:45:01;;;;;;;;;;;;;;;;;;4843602;29;20050;-69
2023/02/06 12:47:30;;;;;;;26.17;11.93;;;;;;;;;;4842983;29;19912;-72
2023/02/06 12:50:00;;;;;;;21.27;10.55;;;;;;;;;;4826580;29;20410;-69
2023/02/06 12:52:32;;;;;;;17.45;9.30;;;;;;;;;;4843258;29;20058;-68
2023/02/06 12:55:06;;;;;;;16.10;8.65;;;;;;;;;;4842880;29;20034;-68
2023/02/06 12:57:33;;;;;;;18.45;9.38;;;;;;;;;;4826531;29;20538;-71
2023/02/06 13:00:18;;;;;;;19.42;8.98;;;;;;;;;;4842710;29;20034;-67
2023/02/06 13:03:03;;;;;;;18.33;9.68;;;;;;;;;;4842908;29;20140;-67
2023/02/06 13:05:35;;;;;;;23.73;11.32;;;;;;;;;;4843050;29;20041;-70
2023/02/06 13:08:24;;;;;;;21.30;9.77;;;;;;;;;;4841676;29;20535;-70
2023/02/06 13:10:59;;;;;;;25.95;10.25;;;;;;;;;;4835389;29;20107;-68
2023/02/06 13:13:30;;;;;;;21.55;10.05;;;;;;;;;;4841506;29;20053;-68
2023/02/06 13:15:59;;;;;;;21.27;9.67;;;;;;;;;;4841218;29;20037;-68
2023/02/06 13:18:40;;;;;;;20.00;10.05;;;;;;;;;;4824245;29;20026;-69
2023/02/06 13:21:24;;;;;;;18.65;8.85;;;;;;;;;;4838646;29;20116;-68
2023/02/06 13:23:50;;;;;;;15.40;9.23;;;;;;;;;;4840205;29;20029;-69
2023/02/06 13:26:16;;;;;;;20.13;10.25;;;;;;;;;;4841696;29;20114;-70
2023/02/06 13:28:43;;;;;;;22.92;9.68;;;;;;;;;;4840641;29;20034;-69
2023/02/06 13:31:25;;;;;;;17.73;9.80;;;;;;;;;;4840998;29;20448;-70
2023/02/06 13:33:59;;;;;;;21.10;9.07;;;;;;;;;;4841051;29;20069;-69
2023/02/06 13:36:27;;;;;;;92.65;27.50;;;;;;;;;;4840743;29;20029;-68
2023/02/06 13:38:53;;;;;;;22.33;11.35;;;;;;;;;;4838629;29;20038;-69
2023/02/06 13:41:26;;;;;;;16.17;7.95;;;;;;;;;;4840531;29;20084;-69
2023/02/06 13:44:02;;;;;;;15.43;7.03;;;;;;;;;;4838506;29;20592;-69
2023/02/06 13:46:36;;;;;;;17.05;9.93;;;;;;;;;;4841610;29;20018;-67
2023/02/06 13:49:37;;;;;;;19.08;9.10;;;;;;;;;;4840895;29;20490;-66
2023/02/06 13:52:14;;;;;;;16.60;8.93;;;;;;;;;;4784035;30;20531;-66
2023/02/06 13:54:58;;;;;;;17.92;9.32;;;;;;;;;;4783636;30;20123;-67
2023/02/06 13:57:42;;;;;;;15.52;7.90;;;;;;;;;;4783618;30;20096;-66
2023/02/06 14:00:09;;;;;;;11.70;5.18;;;;;;;;;;4783783;29;20054;-68
2023/02/06 14:02:39;;;;;;;14.48;6.95;;;;;;;;;;4784248;30;20064;-67
2023/02/06 14:05:09;;;;;;;18.27;9.57;;;;;;;;;;4784017;30;20090;-69
2023/02/06 14:07:41;;;;;;;21.05;9.95;;;;;;;;;;4783377;30;20055;-67
2023/02/06 14:10:13;;;;;;;14.98;7.13;;;;;;;;;;4783778;30;20038;-69
2023/02/06 14:12:44;;;;;;;15.85;7.50;;;;;;;;;;4783897;30;20039;-69
2023/02/06 14:15:13;;;;;;;15.55;7.85;;;;;;;;;;4783793;30;20058;-69
2023/02/06 14:17:45;;;;;;;16.40;8.32;;;;;;;;;;4783432;30;20074;-69
2023/02/06 14:20:26;;;;;;;18.20;8.00;;;;;;;;;;4783205;30;20069;-69
2023/02/06 14:22:58;;;;;;;15.65;5.90;;;;;;;;;;4783887;30;20040;-66
2023/02/06 14:25:33;;;;;;;13.27;5.53;;;;;;;;;;4791946;29;20164;-71
2023/02/06 14:28:17;;;;;;;17.48;8.80;;;;;;;;;;4821569;29;20035;-68
2023/02/06 14:31:09;;;;;;;17.77;9.63;;;;;;;;;;4820474;29;20030;-69
2023/02/06 14:33:35;;;;;;;20.92;10.48;;;;;;;;;;4765554;30;20036;-69
2023/02/06 14:36:22;;;;;;;31.42;14.30;;;;;;;;;;4764657;30;20110;-69
2023/02/06 14:38:59;;;;;;;34.47;17.02;;;;;;;;;;4764967;30;20048;-70
2023/02/06 14:41:29;;;;;;;30.30;15.43;;;;;;;;;;4765467;30;20043;-69
2023/02/06 14:43:55;;;;;;;21.30;9.57;;;;;;;;;;4766178;30;20077;-70
2023/02/06 14:46:21;;;;;;;21.42;10.18;;;;;;;;;;4765026;30;20077;-72
2023/02/06 14:48:49;;;;;;;19.00;10.02;;;;;;;;;;4764360;30;20049;-71
2023/02/06 14:51:23;;;;;;;21.45;9.13;;;;;;;;;;4765364;30;20067;-70
2023/02/06 14:53:54;;;;;;;14.70;6.47;;;;;;;;;;4765317;30;20040;-73
2023/02/06 14:56:31;;;;;;;12.13;6.35;;;;;;;;;;4765148;30;20090;-68
2023/02/06 14:59:07;;;;;;;20.27;9.32;;;;;;;;;;4764698;30;20028;-70
2023/02/06 15:01:33;;;;;;;26.33;10.70;;;;;;;;;;4764724;30;20039;-69
2023/02/06 15:04:10;;;;;;;15.82;6.18;;;;;;;;;;4765090;30;20128;-69
2023/02/06 15:06:38;;;;;;;32.22;14.50;;;;;;;;;;4764859;30;20056;-69
2023/02/06 15:09:04;;;;;;;19.08;8.85;;;;;;;;;;4764835;30;20408;-71
2023/02/06 15:11:31;;;;;;;16.08;8.15;;;;;;;;;;4817454;29;20045;-69
2023/02/06 15:13:58;;;;;;;18.70;8.35;;;;;;;;;;4821814;29;20115;-70
2023/02/06 15:16:24;;;;;;;26.30;11.25;;;;;;;;;;4822198;29;20826;-70
2023/02/06 15:18:50;;;;;;;21.38;10.18;;;;;;;;;;4821187;29;20042;-71
2023/02/06 15:21:22;;;;;;;18.23;9.60;;;;;;;;;;4821344;29;20054;-69
2023/02/06 15:23:58;;;;;;;16.10;8.93;;;;;;;;;;4821061;29;20038;-69
2023/02/06 15:26:27;;;;;;;17.27;8.02;;;;;;;;;;4820781;29;20049;-69
2023/02/06 15:28:58;;;;;;;15.40;6.30;;;;;;;;;;4818450;29;20030;-70
2023/02/06 15:31:24;;;;;;;23.77;10.98;;;;;;;;;;4821174;29;20042;-69
2023/02/06 15:33:51;;;;;;;24.23;12.32;;;;;;;;;;4820928;29;20058;-71
2023/02/06 15:36:22;;;;;;;21.48;11.57;;;;;;;;;;4821052;29;20030;-69
2023/02/06 15:38:49;;;;;;;22.33;11.75;;;;;;;;;;4820835;29;20058;-70
2023/02/06 15:41:16;;;;;;;21.17;10.38;;;;;;;;;;4820980;29;20031;-69
2023/02/06 15:43:43;;;;;;;25.05;10.82;;;;;;;;;;4820730;29;20038;-69
2023/02/06 15:46:09;;;;;;;26.98;11.95;;;;;;;;;;4824048;29;20022;-70
2023/02/06 15:48:35;;;;;;;23.92;10.60;;;;;;;;;;4826570;29;20074;-69
2023/02/06 15:51:01;;;;;;;20.75;10.60;;;;;;;;;;4826950;29;20483;-69
2023/02/06 15:53:29;;;;;;;23.33;11.45;;;;;;;;;;4826599;29;20038;-72
2023/02/06 15:55:55;;;;;;;22.65;11.48;;;;;;;;;;4825108;29;20562;-69
2023/02/06 15:58:22;;;;;;;24.20;11.43;;;;;;;;;;4826797;29;20091;-75
2023/02/06 16:00:52;;;;;;;23.50;11.95;;;;;;;;;;4826404;29;20030;-70
2023/02/06 16:03:20;;;;;;;24.88;11.30;;;;;;;;;;4827009;29;20030;-71
2023/02/06 16:05:46;;;;;;;22.95;11.00;;;;;;;;;;4826488;29;20493;-70
2023/02/06 16:08:23;;;;;;;19.38;10.38;;;;;;;;;;4842697;29;20050;-62
2023/02/06 16:10:52;;;;;;;24.25;11.23;;;;;;;;;;4844662;29;20076;-61
2023/02/06 16:13:20;;;;;;;23.08;10.00;;;;;;;;;;4844543;29;20026;-60
2023/02/06 16:16:06;;;;;;;24.27;11.57;;;;;;;;;;4846429;29;20033;-61
2023/02/06 16:18:36;;;;;;;20.13;9.88;;;;;;;;;;4844041;29;20038;-61
2023/02/06 16:21:17;;;;;;;22.13;10.30;;;;;;;;;;4844917;29;20104;-61
2023/02/06 16:24:05;;;;;;;28.63;12.95;;;;;;;;;;4844714;29;20041;-65
2023/02/06 16:26:51;;;;;;;19.58;9.15;;;;;;;;;;4843995;29;20034;-67
2023/02/06 16:29:17;;;;;;;21.92;9.93;;;;;;;;;;4845471;29;20189;-62
2023/02/06 16:31:44;;;;;;;19.90;9.18;;;;;;;;;;4845185;29;20517;-62
2023/02/06 16:34:28;;;;;;;21.63;11.00;;;;;;;;;;4845840;29;20539;-62
2023/02/06 16:36:54;;;;;;;22.10;10.18;;;;;;;;;;4846010;29;20038;-65
2023/02/06 16:39:20;;;;;;;24.02;11.40;;;;;;;;;;4845764;29;20581;-62
2023/02/06 16:41:50;;;;;;;18.77;9.48;;;;;;;;;;4845377;29;20029;-62
2023/02/06 16:44:17;;;;;;;21.77;11.40;;;;;;;;;;4845423;29;20045;-61
2023/02/06 16:46:45;;;;;;;26.40;12.48;;;;;;;;;;4844764;29;20034;-61
2023/02/06 16:49:16;;;;;;;27.08;13.07;;;;;;;;;;4845595;29;20030;-62
2023/02/06 16:51:42;;;;;;;28.88;13.90;;;;;;;;;;4845902;29;20057;-62
2023/02/06 16:54:15;;;;;;;25.58;12.65;;;;;;;;;;4845550;29;20058;-72
2023/02/06 16:56:40;;;;;;;;;;;;;;;;;;4845940;29;20034;-62
2023/02/06 16:59:06;;;;;;;23.30;12.63;;;;;;;;;;4841269;29;19908;-61
2023/02/06 17:01:34;;;;;;;26.23;12.98;;;;;;;;;;4842267;29;20037;-65
2023/02/06 17:04:00;;;;;;;31.63;13.35;;;;;;;;;;4842687;29;20662;-61
2023/02/06 17:06:27;;;;;;;33.55;14.55;;;;;;;;;;4841801;29;20133;-61
2023/02/06 17:08:56;;;;;;;36.47;15.55;;;;;;;;;;4842657;29;20038;-61
2023/02/06 17:11:22;;;;;;;40.42;17.50;;;;;;;;;;4842526;29;20118;-68
2023/02/06 17:13:48;;;;;;;38.70;16.48;;;;;;;;;;4842715;29;20049;-61
2023/02/06 17:16:17;;;;;;;37.47;16.02;;;;;;;;;;4842005;29;20467;-70
2023/02/06 17:18:43;;;;;;;34.50;16.00;;;;;;;;;;4842356;29;20403;-63
2023/02/06 17:21:12;;;;;;;38.15;16.02;;;;;;;;;;4842696;29;20026;-66
2023/02/06 17:23:38;;;;;;;35.55;15.57;;;;;;;;;;4842420;29;20038;-61
2023/02/06 17:26:04;;;;;;;36.45;16.40;;;;;;;;;;4842447;29;20050;-61
2023/02/06 17:28:30;;;;;;;32.38;15.40;;;;;;;;;;4841682;29;20532;-64
2023/02/06 17:30:56;;;;;;;37.17;16.77;;;;;;;;;;4842555;29;20040;-62
2023/02/06 17:33:22;;;;;;;33.75;15.40;;;;;;;;;;4842492;29;20029;-63
2023/02/06 17:35:48;;;;;;;35.28;15.85;;;;;;;;;;4842132;29;20097;-62
2023/02/06 17:38:14;;;;;;;34.53;15.57;;;;;;;;;;4841690;29;20037;-61
2023/02/06 17:40:40;;;;;;;37.63;16.05;;;;;;;;;;4841860;29;20033;-61
2023/02/06 17:43:07;;;;;;;32.10;14.05;;;;;;;;;;4841255;29;20073;-76
2023/02/06 17:45:34;;;;;;;41.60;17.77;;;;;;;;;;4842006;29;20110;-61
2023/02/06 17:48:00;;;;;;;31.10;15.35;;;;;;;;;;4841398;29;20386;-61
2023/02/06 17:50:28;;;;;;;33.92;15.95;;;;;;;;;;4841754;29;20037;-69
2023/02/06 17:52:54;;;;;;;32.97;15.93;;;;;;;;;;4842100;29;20049;-60
2023/02/06 17:55:24;;;;;;;30.95;15.07;;;;;;;;;;4841734;29;20360;-60
2023/02/06 17:57:50;;;;;;;43.22;19.88;;;;;;;;;;4841549;29;20061;-61
2023/02/06 18:00:18;;;;;;;29.77;13.60;;;;;;;;;;4842028;29;20566;-61
2023/02/06 18:02:44;;;;;;;32.53;15.38;;;;;;;;;;4841926;29;20048;-61
2023/02/06 18:05:10;;;;;;;33.40;14.07;;;;;;;;;;4841431;29;20033;-66
2023/02/06 18:07:37;;;;;;;34.47;15.15;;;;;;;;;;4827621;29;20058;-60
2023/02/06 18:10:03;;;;;;;36.33;15.20;;;;;;;;;;4817316;29;20034;-60
2023/02/06 18:12:29;;;;;;;30.67;14.48;;;;;;;;;;4805115;29;20035;-73
2023/02/06 18:14:56;;;;;;;32.30;14.13;;;;;;;;;;4805285;29;20034;-60
2023/02/06 18:17:22;;;;;;;35.40;16.63;;;;;;;;;;4804821;29;20053;-61
2023/02/06 18:19:49;;;;;;;37.88;17.33;;;;;;;;;;4805157;29;20497;-61
2023/02/06 18:22:17;;;;;;;32.33;14.48;;;;;;;;;;4804979;29;20054;-67
2023/02/06 18:24:44;;;;;;;28.77;13.85;;;;;;;;;;4805028;29;20091;-61
2023/02/06 18:27:10;;;;;;;34.20;16.10;;;;;;;;;;4805911;29;20045;-61
2023/02/06 18:29:43;;;;;;;34.00;16.42;;;;;;;;;;4803404;29;20035;-74
2023/02/06 18:32:10;;;;;;;37.05;16.17;;;;;;;;;;4805101;29;20114;-61
2023/02/06 18:34:36;;;;;;;31.85;15.00;;;;;;;;;;4803928;29;20125;-75
2023/02/06 18:37:03;;;;;;;35.22;16.25;;;;;;;;;;4803721;29;20042;-62
2023/02/06 18:39:29;;;;;;;32.50;15.38;;;;;;;;;;4804655;29;20042;-61
2023/02/06 18:44:43;;;;;;;33.15;14.95;;;;;;;;;;4802692;29;20042;-70
2023/02/06 18:47:09;;;;;;;35.05;15.15;;;;;;;;;;4804624;29;20548;-66
2023/02/06 18:49:35;;;;;;;34.70;15.63;;;;;;;;;;4804550;29;20030;-63
2023/02/06 18:52:01;;;;;;;35.55;15.57;;;;;;;;;;4804619;29;20031;-61
2023/02/06 18:54:28;;;;;;;34.47;16.65;;;;;;;;;;4804754;29;20550;-61
2023/02/06 18:56:54;;;;;;;33.00;15.45;;;;;;;;;;4804398;29;20503;-63
2023/02/06 18:59:20;;;;;;;35.88;15.57;;;;;;;;;;4804414;29;20034;-61
2023/02/06 19:01:46;;;;;;;33.58;15.57;;;;;;;;;;4804394;29;20030;-60
2023/02/06 19:04:13;;;;;;;31.25;16.27;;;;;;;;;;4804523;29;20054;-61
2023/02/06 19:06:41;;;;;;;35.40;15.77;;;;;;;;;;4814952;29;20054;-61
2023/02/06 19:09:07;;;;;;;31.02;15.32;;;;;;;;;;4850455;29;20435;-69
2023/02/06 19:11:34;;;;;;;31.17;15.02;;;;;;;;;;4859205;29;20104;-64
2023/02/06 19:14:00;;;;;;;33.00;16.30;;;;;;;;;;4858980;29;20053;-71
2023/02/06 19:16:27;;;;;;;32.97;15.27;;;;;;;;;;4859003;29;20062;-60
2023/02/06 19:18:53;;;;;;;38.90;15.40;;;;;;;;;;4858891;29;20478;-65
2023/02/06 19:21:20;;;;;;;31.95;14.85;;;;;;;;;;4858747;29;20040;-62
2023/02/06 19:23:47;;;;;;;28.40;12.82;;;;;;;;;;4859086;29;20026;-60
2023/02/06 19:26:15;;;;;;;30.08;14.32;;;;;;;;;;4858850;29;20069;-59
2023/02/06 19:28:41;;;;;;;26.15;14.05;;;;;;;;;;4858738;29;20485;-61
2023/02/06 19:31:09;;;;;;;28.75;13.13;;;;;;;;;;4859046;29;20033;-62
2023/02/06 19:33:36;;;;;;;29.08;13.45;;;;;;;;;;4858646;29;20025;-66
2023/02/06 19:36:06;;;;;;;30.42;13.88;;;;;;;;;;4858995;29;20037;-62